Aviation Digital Data Service (ADDS)

Output produced by METARs form (1558 UTC 23 January 2019)
found at http://www.aviationweather.gov/metar/data/
 
METAR text: ROYN 231500Z AUTO 05016KT 9999 FEW034 SCT038 BKN044 19/12 Q1021
Conditions at: ROYN (YONAGUNI AIRPORT, JP) observed 1500 UTC 23 January 2019
Temperature: 19.0°C (66°F)
Dewpoint: 12.0°C (54°F) [RH = 64%]
Pressure (altimeter): 30.15 inches Hg (1021.0 mb)
Winds: from the NE (50 degrees) at 18 MPH (16 knots; 8.2 m/s)
Visibility: 6 or more miles (10+ km)
Ceiling: 4400 feet AGL
Clouds: few clouds at 3400 feet AGL
scattered clouds at 3800 feet AGL
broken clouds at 4400 feet AGL
Weather: no significant weather observed at this time

METAR text: ROYN 231400Z AUTO 05016KT 9999 -RA BKN034 OVC042 18/13 Q1021
Conditions at: ROYN (YONAGUNI AIRPORT, JP) observed 1400 UTC 23 January 2019
Temperature: 18.0°C (64°F)
Dewpoint: 13.0°C (55°F) [RH = 73%]
Pressure (altimeter): 30.15 inches Hg (1021.0 mb)
Winds: from the NE (50 degrees) at 18 MPH (16 knots; 8.2 m/s)
Visibility: 6 or more miles (10+ km)
Ceiling: 3400 feet AGL
Clouds: broken clouds at 3400 feet AGL
overcast cloud deck at 4200 feet AGL
Weather: -RA  (light rain)

METAR text: ROYN 231300Z AUTO 06016KT 9999 -RA SCT035 SCT041 BKN048 19/12 Q1020
Conditions at: ROYN (YONAGUNI AIRPORT, JP) observed 1300 UTC 23 January 2019
Temperature: 19.0°C (66°F)
Dewpoint: 12.0°C (54°F) [RH = 64%]
Pressure (altimeter): 30.12 inches Hg (1020.0 mb)
Winds: from the ENE (60 degrees) at 18 MPH (16 knots; 8.2 m/s)
Visibility: 6 or more miles (10+ km)
Ceiling: 4800 feet AGL
Clouds: scattered clouds at 3500 feet AGL
scattered clouds at 4100 feet AGL
broken clouds at 4800 feet AGL
Weather: -RA  (light rain)

METAR text: ROYN 231200Z AUTO 07013KT 9999 SCT035 SCT041 BKN048 19/11 Q1021
Conditions at: ROYN (YONAGUNI AIRPORT, JP) observed 1200 UTC 23 January 2019
Temperature: 19.0°C (66°F)
Dewpoint: 11.0°C (52°F) [RH = 60%]
Pressure (altimeter): 30.15 inches Hg (1021.0 mb)
Winds: from the ENE (70 degrees) at 15 MPH (13 knots; 6.7 m/s)
Visibility: 6 or more miles (10+ km)
Ceiling: 4800 feet AGL
Clouds: scattered clouds at 3500 feet AGL
scattered clouds at 4100 feet AGL
broken clouds at 4800 feet AGL
Weather: no significant weather observed at this time

METAR text: ROYN 231100Z AUTO 06014KT 9999 SCT036 SCT041 BKN044 19/12 Q1020
Conditions at: ROYN (YONAGUNI AIRPORT, JP) observed 1100 UTC 23 January 2019
Temperature: 19.0°C (66°F)
Dewpoint: 12.0°C (54°F) [RH = 64%]
Pressure (altimeter): 30.12 inches Hg (1020.0 mb)
Winds: from the ENE (60 degrees) at 16 MPH (14 knots; 7.2 m/s)
Visibility: 6 or more miles (10+ km)
Ceiling: 4400 feet AGL
Clouds: scattered clouds at 3600 feet AGL
scattered clouds at 4100 feet AGL
broken clouds at 4400 feet AGL
Weather: no significant weather observed at this time

METAR text: ROYN 231000Z AUTO 05012KT 040V100 9999 SCT037 SCT042 OVC050 18/11 Q1020
Conditions at: ROYN (YONAGUNI AIRPORT, JP) observed 1000 UTC 23 January 2019
Temperature: 18.0°C (64°F)
Dewpoint: 11.0°C (52°F) [RH = 64%]
Pressure (altimeter): 30.12 inches Hg (1020.0 mb)
Winds: from the NE (50 degrees) at 14 MPH (12 knots; 6.2 m/s)
Visibility: 6 or more miles (10+ km)
Ceiling: 5000 feet AGL
Clouds: scattered clouds at 3700 feet AGL
scattered clouds at 4200 feet AGL
overcast cloud deck at 5000 feet AGL
Weather: no significant weather observed at this time

METAR text: ROYN 230900Z AUTO 06013KT 9999 FEW036 BKN048 OVC050 18/11 Q1020
Conditions at: ROYN (YONAGUNI AIRPORT, JP) observed 0900 UTC 23 January 2019
Temperature: 18.0°C (64°F)
Dewpoint: 11.0°C (52°F) [RH = 64%]
Pressure (altimeter): 30.12 inches Hg (1020.0 mb)
Winds: from the ENE (60 degrees) at 15 MPH (13 knots; 6.7 m/s)
Visibility: 6 or more miles (10+ km)
Ceiling: 4800 feet AGL
Clouds: few clouds at 3600 feet AGL
broken clouds at 4800 feet AGL
overcast cloud deck at 5000 feet AGL
Weather: no significant weather observed at this time

METAR text: ROYN 230800Z AUTO 06013KT 9999 FEW037 SCT042 OVC060 18/10 Q1019
Conditions at: ROYN (YONAGUNI AIRPORT, JP) observed 0800 UTC 23 January 2019
Temperature: 18.0°C (64°F)
Dewpoint: 10.0°C (50°F) [RH = 59%]
Pressure (altimeter): 30.09 inches Hg (1019.0 mb)
Winds: from the ENE (60 degrees) at 15 MPH (13 knots; 6.7 m/s)
Visibility: 6 or more miles (10+ km)
Ceiling: 6000 feet AGL
Clouds: few clouds at 3700 feet AGL
scattered clouds at 4200 feet AGL
overcast cloud deck at 6000 feet AGL
Weather: no significant weather observed at this time

METAR text: ROYN 230700Z AUTO 06013KT 9999 FEW039 SCT050 OVC060 19/11 Q1019
Conditions at: ROYN (YONAGUNI AIRPORT, JP) observed 0700 UTC 23 January 2019
Temperature: 19.0°C (66°F)
Dewpoint: 11.0°C (52°F) [RH = 60%]
Pressure (altimeter): 30.09 inches Hg (1019.0 mb)
Winds: from the ENE (60 degrees) at 15 MPH (13 knots; 6.7 m/s)
Visibility: 6 or more miles (10+ km)
Ceiling: 6000 feet AGL
Clouds: few clouds at 3900 feet AGL
scattered clouds at 5000 feet AGL
overcast cloud deck at 6000 feet AGL
Weather: no significant weather observed at this time

METAR text: ROYN 230600Z AUTO 05014KT 9999 FEW037 BKN050 OVC060 19/11 Q1019
Conditions at: ROYN (YONAGUNI AIRPORT, JP) observed 0600 UTC 23 January 2019
Temperature: 19.0°C (66°F)
Dewpoint: 11.0°C (52°F) [RH = 60%]
Pressure (altimeter): 30.09 inches Hg (1019.0 mb)
Winds: from the NE (50 degrees) at 16 MPH (14 knots; 7.2 m/s)
Visibility: 6 or more miles (10+ km)
Ceiling: 5000 feet AGL
Clouds: few clouds at 3700 feet AGL
broken clouds at 5000 feet AGL
overcast cloud deck at 6000 feet AGL
Weather: no significant weather observed at this time

METAR text: ROYN 230500Z AUTO 05013KT 9999 FEW037 SCT043 BKN050 19/10 Q1020
Conditions at: ROYN (YONAGUNI AIRPORT, JP) observed 0500 UTC 23 January 2019
Temperature: 19.0°C (66°F)
Dewpoint: 10.0°C (50°F) [RH = 56%]
Pressure (altimeter): 30.12 inches Hg (1020.0 mb)
Winds: from the NE (50 degrees) at 15 MPH (13 knots; 6.7 m/s)
Visibility: 6 or more miles (10+ km)
Ceiling: 5000 feet AGL
Clouds: few clouds at 3700 feet AGL
scattered clouds at 4300 feet AGL
broken clouds at 5000 feet AGL
Weather: no significant weather observed at this time

METAR text: ROYN 230400Z AUTO 05015KT 9999 FEW036 BKN060 19/11 Q1021
Conditions at: ROYN (YONAGUNI AIRPORT, JP) observed 0400 UTC 23 January 2019
Temperature: 19.0°C (66°F)
Dewpoint: 11.0°C (52°F) [RH = 60%]
Pressure (altimeter): 30.15 inches Hg (1021.0 mb)
Winds: from the NE (50 degrees) at 17 MPH (15 knots; 7.7 m/s)
Visibility: 6 or more miles (10+ km)
Ceiling: 6000 feet AGL
Clouds: few clouds at 3600 feet AGL
broken clouds at 6000 feet AGL
Weather: no significant weather observed at this time

METAR text: ROYN 230300Z AUTO 05015KT 9999 FEW037 OVC060 19/11 Q1021
Conditions at: ROYN (YONAGUNI AIRPORT, JP) observed 0300 UTC 23 January 2019
Temperature: 19.0°C (66°F)
Dewpoint: 11.0°C (52°F) [RH = 60%]
Pressure (altimeter): 30.15 inches Hg (1021.0 mb)
Winds: from the NE (50 degrees) at 17 MPH (15 knots; 7.7 m/s)
Visibility: 6 or more miles (10+ km)
Ceiling: 6000 feet AGL
Clouds: few clouds at 3700 feet AGL
overcast cloud deck at 6000 feet AGL
Weather: no significant weather observed at this time

METAR text: ROYN 230200Z AUTO 06014KT 9999 SCT037 BKN044 OVC050 18/10 Q1022
Conditions at: ROYN (YONAGUNI AIRPORT, JP) observed 0200 UTC 23 January 2019
Temperature: 18.0°C (64°F)
Dewpoint: 10.0°C (50°F) [RH = 59%]
Pressure (altimeter): 30.18 inches Hg (1022.0 mb)
Winds: from the ENE (60 degrees) at 16 MPH (14 knots; 7.2 m/s)
Visibility: 6 or more miles (10+ km)
Ceiling: 4400 feet AGL
Clouds: scattered clouds at 3700 feet AGL
broken clouds at 4400 feet AGL
overcast cloud deck at 5000 feet AGL
Weather: no significant weather observed at this time

METAR text: ROYN 230100Z AUTO 06016KT 9999 BKN036 BKN041 OVC060 17/10 Q1022
Conditions at: ROYN (YONAGUNI AIRPORT, JP) observed 0100 UTC 23 January 2019
Temperature: 17.0°C (63°F)
Dewpoint: 10.0°C (50°F) [RH = 63%]
Pressure (altimeter): 30.18 inches Hg (1022.0 mb)
Winds: from the ENE (60 degrees) at 18 MPH (16 knots; 8.2 m/s)
Visibility: 6 or more miles (10+ km)
Ceiling: 3600 feet AGL
Clouds: broken clouds at 3600 feet AGL
broken clouds at 4100 feet AGL
overcast cloud deck at 6000 feet AGL
Weather: no significant weather observed at this time

METAR text: ROYN 230000Z AUTO 05015KT 9999 FEW038 SCT042 BKN049 17/09 Q1021
Conditions at: ROYN (YONAGUNI AIRPORT, JP) observed 0000 UTC 23 January 2019
Temperature: 17.0°C (63°F)
Dewpoint: 9.0°C (48°F) [RH = 59%]
Pressure (altimeter): 30.15 inches Hg (1021.0 mb)
Winds: from the NE (50 degrees) at 17 MPH (15 knots; 7.7 m/s)
Visibility: 6 or more miles (10+ km)
Ceiling: 4900 feet AGL
Clouds: few clouds at 3800 feet AGL
scattered clouds at 4200 feet AGL
broken clouds at 4900 feet AGL
Weather: no significant weather observed at this time

METAR text: ROYN 222300Z AUTO 06017KT 9999 SCT036 BKN038 BKN043 17/10 Q1021
Conditions at: ROYN (YONAGUNI AIRPORT, JP) observed 2300 UTC 22 January 2019
Temperature: 17.0°C (63°F)
Dewpoint: 10.0°C (50°F) [RH = 63%]
Pressure (altimeter): 30.15 inches Hg (1021.0 mb)
Winds: from the ENE (60 degrees) at 20 MPH (17 knots; 8.7 m/s)
Visibility: 6 or more miles (10+ km)
Ceiling: 3800 feet AGL
Clouds: scattered clouds at 3600 feet AGL
broken clouds at 3800 feet AGL
broken clouds at 4300 feet AGL
Weather: no significant weather observed at this time

METAR text: ROYN 222200Z AUTO 04017KT 9999 SCT040 SCT042 BKN045 17/09 Q1020
Conditions at: ROYN (YONAGUNI AIRPORT, JP) observed 2200 UTC 22 January 2019
Temperature: 17.0°C (63°F)
Dewpoint: 9.0°C (48°F) [RH = 59%]
Pressure (altimeter): 30.12 inches Hg (1020.0 mb)
Winds: from the NE (40 degrees) at 20 MPH (17 knots; 8.7 m/s)
Visibility: 6 or more miles (10+ km)
Ceiling: 4500 feet AGL
Clouds: scattered clouds at 4000 feet AGL
scattered clouds at 4200 feet AGL
broken clouds at 4500 feet AGL
Weather: no significant weather observed at this time

METAR text: ROYN 222100Z AUTO 04018KT 9999 FEW038 SCT047 BKN070 17/10 Q1019
Conditions at: ROYN (YONAGUNI AIRPORT, JP) observed 2100 UTC 22 January 2019
Temperature: 17.0°C (63°F)
Dewpoint: 10.0°C (50°F) [RH = 63%]
Pressure (altimeter): 30.09 inches Hg (1019.0 mb)
Winds: from the NE (40 degrees) at 21 MPH (18 knots; 9.3 m/s)
Visibility: 6 or more miles (10+ km)
Ceiling: 7000 feet AGL
Clouds: few clouds at 3800 feet AGL
scattered clouds at 4700 feet AGL
broken clouds at 7000 feet AGL
Weather: no significant weather observed at this time

METAR text: ROYN 222000Z AUTO 04018KT 9999 SCT040 OVC070 17/09 Q1020
Conditions at: ROYN (YONAGUNI AIRPORT, JP) observed 2000 UTC 22 January 2019
Temperature: 17.0°C (63°F)
Dewpoint: 9.0°C (48°F) [RH = 59%]
Pressure (altimeter): 30.12 inches Hg (1020.0 mb)
Winds: from the NE (40 degrees) at 21 MPH (18 knots; 9.3 m/s)
Visibility: 6 or more miles (10+ km)
Ceiling: 7000 feet AGL
Clouds: scattered clouds at 4000 feet AGL
overcast cloud deck at 7000 feet AGL
Weather: no significant weather observed at this time

METAR text: ROYN 221900Z AUTO 03019KT 9999 SCT040 OVC060 17/10 Q1020
Conditions at: ROYN (YONAGUNI AIRPORT, JP) observed 1900 UTC 22 January 2019
Temperature: 17.0°C (63°F)
Dewpoint: 10.0°C (50°F) [RH = 63%]
Pressure (altimeter): 30.12 inches Hg (1020.0 mb)
Winds: from the NNE (30 degrees) at 22 MPH (19 knots; 9.8 m/s)
Visibility: 6 or more miles (10+ km)
Ceiling: 6000 feet AGL
Clouds: scattered clouds at 4000 feet AGL
overcast cloud deck at 6000 feet AGL
Weather: no significant weather observed at this time

METAR text: ROYN 221800Z AUTO 03020KT 9999 SCT040 BKN044 OVC048 17/10 Q1020
Conditions at: ROYN (YONAGUNI AIRPORT, JP) observed 1800 UTC 22 January 2019
Temperature: 17.0°C (63°F)
Dewpoint: 10.0°C (50°F) [RH = 63%]
Pressure (altimeter): 30.12 inches Hg (1020.0 mb)
Winds: from the NNE (30 degrees) at 23 MPH (20 knots; 10.3 m/s)
Visibility: 6 or more miles (10+ km)
Ceiling: 4400 feet AGL
Clouds: scattered clouds at 4000 feet AGL
broken clouds at 4400 feet AGL
overcast cloud deck at 4800 feet AGL
Weather: no significant weather observed at this time

METAR text: ROYN 221700Z AUTO 03019KT 9999 FEW036 BKN038 BKN043 17/10 Q1021
Conditions at: ROYN (YONAGUNI AIRPORT, JP) observed 1700 UTC 22 January 2019
Temperature: 17.0°C (63°F)
Dewpoint: 10.0°C (50°F) [RH = 63%]
Pressure (altimeter): 30.15 inches Hg (1021.0 mb)
Winds: from the NNE (30 degrees) at 22 MPH (19 knots; 9.8 m/s)
Visibility: 6 or more miles (10+ km)
Ceiling: 3800 feet AGL
Clouds: few clouds at 3600 feet AGL
broken clouds at 3800 feet AGL
broken clouds at 4300 feet AGL
Weather: no significant weather observed at this time

METAR text: ROYN 221600Z AUTO 04020KT 9999 FEW033 SCT037 BKN043 17/11 Q1021
Conditions at: ROYN (YONAGUNI AIRPORT, JP) observed 1600 UTC 22 January 2019
Temperature: 17.0°C (63°F)
Dewpoint: 11.0°C (52°F) [RH = 68%]
Pressure (altimeter): 30.15 inches Hg (1021.0 mb)
Winds: from the NE (40 degrees) at 23 MPH (20 knots; 10.3 m/s)
Visibility: 6 or more miles (10+ km)
Ceiling: 4300 feet AGL
Clouds: few clouds at 3300 feet AGL
scattered clouds at 3700 feet AGL
broken clouds at 4300 feet AGL
Weather: no significant weather observed at this time

METAR text: ROYN 221500Z AUTO 02021KT 9999 -RA SCT034 BKN036 BKN038 17/11 Q1021
Conditions at: ROYN (YONAGUNI AIRPORT, JP) observed 1500 UTC 22 January 2019
Temperature: 17.0°C (63°F)
Dewpoint: 11.0°C (52°F) [RH = 68%]
Pressure (altimeter): 30.15 inches Hg (1021.0 mb)
Winds: from the NNE (20 degrees) at 24 MPH (21 knots; 10.8 m/s)
Visibility: 6 or more miles (10+ km)
Ceiling: 3600 feet AGL
Clouds: scattered clouds at 3400 feet AGL
broken clouds at 3600 feet AGL
broken clouds at 3800 feet AGL
Weather: -RA  (light rain)

METAR text: ROYN 221400Z AUTO 04020KT 9000 OVC034 18/12 Q1021
Conditions at: ROYN (YONAGUNI AIRPORT, JP) observed 1400 UTC 22 January 2019
Temperature: 18.0°C (64°F)
Dewpoint: 12.0°C (54°F) [RH = 68%]
Pressure (altimeter): 30.15 inches Hg (1021.0 mb)
Winds: from the NE (40 degrees) at 23 MPH (20 knots; 10.3 m/s)
Visibility: 6 miles ( 9 km)
Ceiling: 3400 feet AGL
Clouds: overcast cloud deck at 3400 feet AGL
Weather: no significant weather observed at this time

METAR text: ROYN 221300Z AUTO 03022KT 9999 BKN033 OVC036 18/12 Q1021
Conditions at: ROYN (YONAGUNI AIRPORT, JP) observed 1300 UTC 22 January 2019
Temperature: 18.0°C (64°F)
Dewpoint: 12.0°C (54°F) [RH = 68%]
Pressure (altimeter): 30.15 inches Hg (1021.0 mb)
Winds: from the NNE (30 degrees) at 25 MPH (22 knots; 11.3 m/s)
Visibility: 6 or more miles (10+ km)
Ceiling: 3300 feet AGL
Clouds: broken clouds at 3300 feet AGL
overcast cloud deck at 3600 feet AGL
Weather: no significant weather observed at this time

METAR text: ROYN 221200Z AUTO 03021KT 9999 BKN031 OVC033 18/12 Q1021
Conditions at: ROYN (YONAGUNI AIRPORT, JP) observed 1200 UTC 22 January 2019
Temperature: 18.0°C (64°F)
Dewpoint: 12.0°C (54°F) [RH = 68%]
Pressure (altimeter): 30.15 inches Hg (1021.0 mb)
Winds: from the NNE (30 degrees) at 24 MPH (21 knots; 10.8 m/s)
Visibility: 6 or more miles (10+ km)
Ceiling: 3100 feet AGL
Clouds: broken clouds at 3100 feet AGL
overcast cloud deck at 3300 feet AGL
Weather: no significant weather observed at this time

METAR text: ROYN 221100Z AUTO 03022KT 9999 -RA BKN032 BKN034 OVC036 17/12 Q1021
Conditions at: ROYN (YONAGUNI AIRPORT, JP) observed 1100 UTC 22 January 2019
Temperature: 17.0°C (63°F)
Dewpoint: 12.0°C (54°F) [RH = 72%]
Pressure (altimeter): 30.15 inches Hg (1021.0 mb)
Winds: from the NNE (30 degrees) at 25 MPH (22 knots; 11.3 m/s)
Visibility: 6 or more miles (10+ km)
Ceiling: 3200 feet AGL
Clouds: broken clouds at 3200 feet AGL
broken clouds at 3400 feet AGL
overcast cloud deck at 3600 feet AGL
Weather: -RA  (light rain)

METAR text: ROYN 221000Z AUTO 03023KT 9000 -RA OVC030 18/13 Q1021
Conditions at: ROYN (YONAGUNI AIRPORT, JP) observed 1000 UTC 22 January 2019
Temperature: 18.0°C (64°F)
Dewpoint: 13.0°C (55°F) [RH = 73%]
Pressure (altimeter): 30.15 inches Hg (1021.0 mb)
Winds: from the NNE (30 degrees) at 26 MPH (23 knots; 11.8 m/s)
Visibility: 6 miles ( 9 km)
Ceiling: 3000 feet AGL
Clouds: overcast cloud deck at 3000 feet AGL
Weather: -RA  (light rain)

METAR text: ROYN 220900Z AUTO 01024KT 9999 -RA BKN028 OVC032 18/13 Q1020
Conditions at: ROYN (YONAGUNI AIRPORT, JP) observed 0900 UTC 22 January 2019
Temperature: 18.0°C (64°F)
Dewpoint: 13.0°C (55°F) [RH = 73%]
Pressure (altimeter): 30.12 inches Hg (1020.0 mb)
Winds: from the N (10 degrees) at 28 MPH (24 knots; 12.3 m/s)
Visibility: 6 or more miles (10+ km)
Ceiling: 2800 feet AGL
Clouds: broken clouds at 2800 feet AGL
overcast cloud deck at 3200 feet AGL
Weather: -RA  (light rain)

METAR text: ROYN 220800Z AUTO 02024KT 8000 OVC024 17/13 Q1020
Conditions at: ROYN (YONAGUNI AIRPORT, JP) observed 0800 UTC 22 January 2019
Temperature: 17.0°C (63°F)
Dewpoint: 13.0°C (55°F) [RH = 77%]
Pressure (altimeter): 30.12 inches Hg (1020.0 mb)
Winds: from the NNE (20 degrees) at 28 MPH (24 knots; 12.3 m/s)
Visibility: 5 miles ( 8 km)
Ceiling: 2400 feet AGL
Clouds: overcast cloud deck at 2400 feet AGL
Weather: no significant weather observed at this time

METAR text: ROYN 220700Z AUTO 02027KT 7000 -RA BKN017 OVC023 17/15 Q1019
Conditions at: ROYN (YONAGUNI AIRPORT, JP) observed 0700 UTC 22 January 2019
Temperature: 17.0°C (63°F)
Dewpoint: 15.0°C (59°F) [RH = 88%]
Pressure (altimeter): 30.09 inches Hg (1019.0 mb)
Winds: from the NNE (20 degrees) at 31 MPH (27 knots; 13.9 m/s)
Visibility: 4 miles ( 7 km)
Ceiling: 1700 feet AGL
Clouds: broken clouds at 1700 feet AGL
overcast cloud deck at 2300 feet AGL
Weather: -RA  (light rain)

METAR text: ROYN 220600Z AUTO 01026KT 9999 -RA SCT021 BKN029 OVC031 17/13 Q1019
Conditions at: ROYN (YONAGUNI AIRPORT, JP) observed 0600 UTC 22 January 2019
Temperature: 17.0°C (63°F)
Dewpoint: 13.0°C (55°F) [RH = 77%]
Pressure (altimeter): 30.09 inches Hg (1019.0 mb)
Winds: from the N (10 degrees) at 30 MPH (26 knots; 13.4 m/s)
Visibility: 6 or more miles (10+ km)
Ceiling: 2900 feet AGL
Clouds: scattered clouds at 2100 feet AGL
broken clouds at 2900 feet AGL
overcast cloud deck at 3100 feet AGL
Weather: -RA  (light rain)

METAR text: ROYN 220500Z AUTO 01027KT 9999 -RA FEW017 SCT019 BKN027 17/14 Q1019
Conditions at: ROYN (YONAGUNI AIRPORT, JP) observed 0500 UTC 22 January 2019
Temperature: 17.0°C (63°F)
Dewpoint: 14.0°C (57°F) [RH = 82%]
Pressure (altimeter): 30.09 inches Hg (1019.0 mb)
Winds: from the N (10 degrees) at 31 MPH (27 knots; 13.9 m/s)
Visibility: 6 or more miles (10+ km)
Ceiling: 2700 feet AGL
Clouds: few clouds at 1700 feet AGL
scattered clouds at 1900 feet AGL
broken clouds at 2700 feet AGL
Weather: -RA  (light rain)

METAR text: ROYN 220400Z AUTO 02023KT 8000 -RA BKN013 BKN024 OVC043 17/15 Q1020
Conditions at: ROYN (YONAGUNI AIRPORT, JP) observed 0400 UTC 22 January 2019
Temperature: 17.0°C (63°F)
Dewpoint: 15.0°C (59°F) [RH = 88%]
Pressure (altimeter): 30.12 inches Hg (1020.0 mb)
Winds: from the NNE (20 degrees) at 26 MPH (23 knots; 11.8 m/s)
Visibility: 5 miles ( 8 km)
Ceiling: 1300 feet AGL
Clouds: broken clouds at 1300 feet AGL
broken clouds at 2400 feet AGL
overcast cloud deck at 4300 feet AGL
Weather: -RA  (light rain)